createdAt,value
2016-12-29T00:00:45.810Z,0
2016-12-29T00:03:18.126Z,0
2016-12-29T00:05:50.443Z,0
2016-12-29T00:08:23.064Z,0
2016-12-29T00:10:55.378Z,0
2016-12-29T00:13:28.006Z,0
2016-12-29T00:16:00.322Z,0
2016-12-29T00:18:32.658Z,0
2016-12-29T00:21:04.983Z,0
2016-12-29T00:23:37.293Z,0
2016-12-29T00:26:09.609Z,0
2016-12-29T00:28:41.965Z,0
2016-12-29T00:31:14.299Z,0
2016-12-29T00:33:46.622Z,0
2016-12-29T00:36:18.940Z,0
2016-12-29T00:38:51.702Z,0
2016-12-29T00:41:24.030Z,0
2016-12-29T00:43:56.351Z,0
2016-12-29T00:46:29.026Z,0
2016-12-29T00:49:01.353Z,0
2016-12-29T00:51:33.769Z,0
2016-12-29T00:54:06.102Z,0
2016-12-29T00:56:38.446Z,0
2016-12-29T00:59:10.775Z,0
2016-12-29T01:01:43.097Z,0
2016-12-29T01:04:15.423Z,0
2016-12-29T01:06:47.746Z,0
2016-12-29T01:09:20.680Z,0
2016-12-29T01:11:52.993Z,0
2016-12-29T01:14:25.491Z,0
2016-12-29T01:16:57.823Z,0
2016-12-29T01:19:30.156Z,0
2016-12-29T01:22:02.487Z,0
2016-12-29T01:24:34.805Z,0
2016-12-29T01:27:07.120Z,0
2016-12-29T01:29:39.454Z,0
2016-12-29T01:32:11.807Z,0
2016-12-29T01:34:44.135Z,0
2016-12-29T01:37:16.434Z,0
2016-12-29T01:39:48.763Z,0
2016-12-29T01:42:21.072Z,0
2016-12-29T01:44:53.386Z,0
2016-12-29T01:47:25.716Z,0
2016-12-29T01:49:58.021Z,0
2016-12-29T01:52:30.342Z,0
2016-12-29T01:55:02.652Z,0
2016-12-29T01:57:34.999Z,0
2016-12-29T02:00:07.308Z,0
2016-12-29T02:02:39.652Z,0
2016-12-29T02:05:11.967Z,0
2016-12-29T02:07:44.300Z,0
2016-12-29T02:10:16.620Z,0
2016-12-29T02:12:48.944Z,0
2016-12-29T02:15:21.272Z,0
2016-12-29T02:17:53.583Z,0
2016-12-29T02:20:25.901Z,0
2016-12-29T02:22:58.223Z,0
2016-12-29T02:25:30.531Z,0
2016-12-29T02:28:02.867Z,0
2016-12-29T02:30:35.176Z,0
2016-12-29T02:33:07.505Z,0
2016-12-29T02:35:39.842Z,0
2016-12-29T02:38:12.210Z,0
2016-12-29T02:40:44.529Z,0
2016-12-29T02:43:16.881Z,0
2016-12-29T02:45:49.205Z,0
2016-12-29T02:48:21.520Z,0
2016-12-29T02:50:53.837Z,0
2016-12-29T02:53:26.164Z,0
2016-12-29T02:55:58.490Z,0
2016-12-29T02:58:30.818Z,0
2016-12-29T03:01:03.137Z,0
2016-12-29T03:03:35.646Z,0
2016-12-29T03:06:07.964Z,0
2016-12-29T03:08:40.301Z,0
2016-12-29T03:11:12.629Z,0
2016-12-29T03:13:45.162Z,0
2016-12-29T03:16:17.483Z,0
2016-12-29T03:18:49.805Z,0
2016-12-29T03:21:22.134Z,0
2016-12-29T03:23:54.916Z,0
2016-12-29T03:26:27.228Z,0
2016-12-29T03:28:59.546Z,0
2016-12-29T03:31:31.868Z,0
2016-12-29T03:34:04.242Z,0
2016-12-29T03:36:36.569Z,0
2016-12-29T03:39:08.892Z,0
2016-12-29T03:41:41.207Z,0
2016-12-29T03:44:13.528Z,0
2016-12-29T03:46:45.848Z,0
2016-12-29T03:49:18.165Z,0
2016-12-29T03:51:50.478Z,0
2016-12-29T03:54:22.779Z,0
2016-12-29T03:56:55.096Z,0
2016-12-29T03:59:27.418Z,0
2016-12-29T04:01:59.763Z,0
2016-12-29T04:04:32.086Z,0
2016-12-29T04:07:04.413Z,0
2016-12-29T04:09:36.714Z,0
2016-12-29T04:12:09.655Z,0
2016-12-29T04:14:41.982Z,0
2016-12-29T04:17:14.312Z,0
2016-12-29T04:19:46.624Z,0
2016-12-29T04:22:18.957Z,0
2016-12-29T04:24:51.474Z,0
2016-12-29T04:27:23.799Z,0
2016-12-29T04:29:56.113Z,0
2016-12-29T04:32:28.419Z,0
2016-12-29T04:35:00.739Z,0
2016-12-29T04:37:33.058Z,0
2016-12-29T04:40:05.392Z,0
2016-12-29T04:42:37.717Z,0
2016-12-29T04:45:10.022Z,0
2016-12-29T04:47:42.937Z,0
2016-12-29T04:50:15.260Z,0
2016-12-29T04:52:47.581Z,0
2016-12-29T04:55:19.902Z,0
2016-12-29T04:57:52.218Z,0
2016-12-29T05:00:24.564Z,0
2016-12-29T05:02:56.890Z,0
2016-12-29T05:05:29.202Z,0
2016-12-29T05:08:01.538Z,0
2016-12-29T05:10:33.858Z,0
2016-12-29T05:13:06.193Z,0
2016-12-29T05:15:38.505Z,0
2016-12-29T05:18:10.827Z,0
2016-12-29T05:20:43.131Z,0
2016-12-29T05:23:15.456Z,0
2016-12-29T05:25:47.779Z,0
2016-12-29T05:28:20.087Z,0
2016-12-29T05:30:52.454Z,0
2016-12-29T05:33:24.759Z,0
2016-12-29T05:35:57.094Z,0
2016-12-29T05:38:29.420Z,0
2016-12-29T05:41:01.745Z,0
2016-12-29T05:43:34.056Z,0
2016-12-29T05:46:06.364Z,0
2016-12-29T05:48:38.691Z,0
2016-12-29T05:51:11.023Z,0
2016-12-29T05:53:43.379Z,0
2016-12-29T05:56:15.692Z,0
2016-12-29T05:58:48.038Z,0
2016-12-29T06:01:20.360Z,0
2016-12-29T06:03:52.673Z,0
2016-12-29T06:06:25.000Z,0
2016-12-29T06:08:57.322Z,0
2016-12-29T06:11:29.633Z,0
2016-12-29T06:14:01.980Z,0
2016-12-29T06:16:34.297Z,0
2016-12-29T06:19:06.631Z,0
2016-12-29T06:21:38.941Z,0
2016-12-29T06:24:11.260Z,0
2016-12-29T06:26:43.583Z,0
2016-12-29T06:29:15.904Z,0
2016-12-29T06:31:48.225Z,0
2016-12-29T06:34:20.531Z,0
2016-12-29T06:36:53.067Z,0
2016-12-29T06:39:25.391Z,0
2016-12-29T06:41:57.722Z,0
2016-12-29T06:44:30.047Z,0
2016-12-29T06:47:02.376Z,0
2016-12-29T06:49:34.682Z,0
2016-12-29T06:52:07.201Z,0
2016-12-29T06:54:39.525Z,0
2016-12-29T06:57:11.850Z,0
2016-12-29T06:59:44.192Z,0
2016-12-29T07:02:16.532Z,0
2016-12-29T07:04:48.852Z,1
2016-12-29T07:07:21.152Z,1
2016-12-29T07:09:53.477Z,0
2016-12-29T07:12:25.796Z,0
2016-12-29T07:14:58.159Z,0
2016-12-29T07:17:30.494Z,0
2016-12-29T07:20:02.821Z,1
2016-12-29T07:22:35.131Z,1
2016-12-29T07:25:07.451Z,3
2016-12-29T07:27:39.774Z,3
2016-12-29T07:30:12.100Z,3
2016-12-29T07:32:44.416Z,3
2016-12-29T07:35:16.747Z,5
2016-12-29T07:37:49.057Z,4
2016-12-29T07:40:21.362Z,7
2016-12-29T07:42:53.698Z,6
2016-12-29T07:45:26.022Z,8
2016-12-29T07:47:58.332Z,8
2016-12-29T07:50:30.654Z,9
2016-12-29T07:53:02.966Z,11
2016-12-29T07:55:35.303Z,11
2016-12-29T07:58:07.611Z,13
2016-12-29T08:00:39.952Z,13
2016-12-29T08:03:12.259Z,14
2016-12-29T08:05:44.589Z,17
2016-12-29T08:08:16.894Z,16
2016-12-29T08:10:49.235Z,18
2016-12-29T08:13:21.554Z,21
2016-12-29T08:15:53.872Z,22
2016-12-29T08:18:26.192Z,19
2016-12-29T08:20:58.537Z,21
2016-12-29T08:23:30.890Z,23
2016-12-29T08:26:03.305Z,23
2016-12-29T08:28:35.754Z,26
2016-12-29T08:31:08.094Z,28
2016-12-29T08:33:40.435Z,32
2016-12-29T08:36:12.784Z,30
2016-12-29T08:38:45.431Z,31
2016-12-29T08:41:17.756Z,35
2016-12-29T08:43:50.081Z,35
2016-12-29T08:46:22.427Z,36
2016-12-29T08:48:54.773Z,40
2016-12-29T08:51:27.089Z,37
2016-12-29T08:53:59.422Z,43
2016-12-29T08:56:31.894Z,40
2016-12-29T08:59:04.230Z,40
2016-12-29T09:01:36.557Z,44
2016-12-29T09:04:08.874Z,43
2016-12-29T09:06:41.213Z,45
2016-12-29T09:09:13.537Z,43
2016-12-29T09:11:45.927Z,44
2016-12-29T09:14:18.301Z,41
2016-12-29T09:16:50.693Z,41
2016-12-29T09:19:23.014Z,39
2016-12-29T09:21:55.351Z,37
2016-12-29T09:24:27.673Z,38
2016-12-29T09:26:59.999Z,39
2016-12-29T09:29:32.350Z,41
2016-12-29T09:32:04.678Z,49
2016-12-29T09:34:37.003Z,61
2016-12-29T09:37:09.333Z,73
2016-12-29T09:39:41.660Z,65
2016-12-29T09:42:13.981Z,69
2016-12-29T09:44:46.304Z,76
2016-12-29T09:47:18.627Z,76
2016-12-29T09:49:50.954Z,76
2016-12-29T09:52:23.269Z,75
2016-12-29T09:54:55.602Z,71
2016-12-29T09:57:27.930Z,75
2016-12-29T10:00:00.251Z,84
2016-12-29T10:02:32.555Z,81
2016-12-29T10:05:04.877Z,74
2016-12-29T10:07:37.208Z,93
2016-12-29T10:10:09.776Z,80
2016-12-29T10:12:42.111Z,81
2016-12-29T10:15:14.428Z,85
2016-12-29T10:20:34.094Z,82
2016-12-29T10:23:06.855Z,86
2016-12-29T10:25:39.244Z,97
2016-12-29T10:28:11.731Z,82
2016-12-29T10:30:44.780Z,81
2016-12-29T10:33:17.107Z,103
2016-12-29T10:35:49.428Z,80
2016-12-29T10:38:21.736Z,83
2016-12-29T10:40:54.049Z,83
2016-12-29T10:43:27.951Z,84
2016-12-29T10:46:00.345Z,83
2016-12-29T10:48:32.844Z,83
2016-12-29T10:51:05.247Z,86
2016-12-29T10:53:37.567Z,81
2016-12-29T10:56:09.904Z,91
2016-12-29T10:58:42.203Z,95
2016-12-29T11:01:14.539Z,93
2016-12-29T11:03:46.859Z,95
2016-12-29T11:06:19.175Z,95
2016-12-29T11:08:51.493Z,92
2016-12-29T11:11:23.819Z,97
2016-12-29T11:13:56.152Z,96
2016-12-29T11:16:28.455Z,94
2016-12-29T11:19:00.804Z,95
2016-12-29T11:21:33.135Z,97
2016-12-29T11:24:05.475Z,97
2016-12-29T11:26:37.813Z,97
2016-12-29T11:29:10.329Z,89
2016-12-29T11:31:42.664Z,95
2016-12-29T11:34:14.979Z,99
2016-12-29T11:36:47.311Z,94
2016-12-29T11:39:19.630Z,100
2016-12-29T11:41:51.963Z,104
2016-12-29T11:44:24.290Z,101
2016-12-29T11:46:56.593Z,87
2016-12-29T11:49:28.911Z,86
2016-12-29T11:52:01.212Z,90
2016-12-29T11:54:33.563Z,94
2016-12-29T11:57:05.892Z,93
2016-12-29T11:59:38.260Z,103
2016-12-29T12:02:10.618Z,96
2016-12-29T12:04:42.931Z,108
2016-12-29T12:07:15.267Z,92
2016-12-29T12:09:47.628Z,95
2016-12-29T12:12:19.961Z,88
2016-12-29T12:14:52.280Z,88
2016-12-29T12:17:24.580Z,88
2016-12-29T12:19:56.907Z,89
2016-12-29T12:22:29.228Z,87
2016-12-29T12:25:01.563Z,88
2016-12-29T12:27:33.881Z,85
2016-12-29T12:30:06.195Z,85
2016-12-29T12:32:38.514Z,83
2016-12-29T12:35:10.831Z,81
2016-12-29T12:37:43.176Z,81
2016-12-29T12:40:15.494Z,81
2016-12-29T12:42:47.802Z,82
2016-12-29T12:45:20.136Z,77
2016-12-29T12:47:52.474Z,315
2016-12-29T12:50:24.790Z,623
2016-12-29T12:52:57.096Z,528
2016-12-29T12:55:29.400Z,554
2016-12-29T12:58:01.698Z,589
2016-12-29T13:00:34.007Z,582
2016-12-29T13:03:06.333Z,67
2016-12-29T13:05:38.661Z,67
2016-12-29T13:08:10.975Z,66
2016-12-29T13:10:43.278Z,68
2016-12-29T13:13:15.622Z,71
2016-12-29T13:15:47.944Z,69
2016-12-29T13:18:20.280Z,69
2016-12-29T13:20:52.593Z,67
2016-12-29T13:23:24.910Z,63
2016-12-29T13:25:57.242Z,65
2016-12-29T13:28:29.569Z,63
2016-12-29T13:31:01.889Z,63
2016-12-29T13:33:34.199Z,61
2016-12-29T13:36:06.516Z,60
2016-12-29T13:38:38.815Z,58
2016-12-29T13:41:11.122Z,58
2016-12-29T13:43:43.450Z,57
2016-12-29T13:51:27.838Z,941
2016-12-29T13:54:00.165Z,52
2016-12-29T13:56:32.504Z,49
2016-12-29T13:59:04.841Z,49
2016-12-29T14:01:37.186Z,47
2016-12-29T14:04:09.499Z,45
2016-12-29T14:06:41.824Z,43
2016-12-29T14:09:14.156Z,43
2016-12-29T14:11:46.478Z,41
2016-12-29T14:14:18.819Z,39
2016-12-29T14:16:51.174Z,39
2016-12-29T14:19:23.598Z,36
2016-12-29T14:21:55.916Z,35
2016-12-29T14:24:28.237Z,34
2016-12-29T14:27:00.576Z,31
2016-12-29T14:29:32.925Z,30
2016-12-29T14:32:05.259Z,28
2016-12-29T14:34:37.593Z,26
2016-12-29T14:37:09.914Z,25
2016-12-29T14:39:42.243Z,22
2016-12-29T14:42:14.673Z,19
2016-12-29T14:44:47.302Z,18
2016-12-29T14:47:19.634Z,17
2016-12-29T14:49:51.970Z,15
2016-12-29T14:52:24.287Z,12
2016-12-29T14:54:56.618Z,11
2016-12-29T14:57:28.942Z,8
2016-12-29T15:00:01.256Z,9
2016-12-29T15:02:33.571Z,7
2016-12-29T15:05:05.871Z,5
2016-12-29T15:07:38.213Z,4
2016-12-29T15:10:10.517Z,4
2016-12-29T15:12:42.821Z,3
2016-12-29T15:15:15.141Z,2
2016-12-29T15:17:47.463Z,1
2016-12-29T15:20:19.760Z,1
2016-12-29T15:22:52.320Z,1
2016-12-29T15:25:24.654Z,0
2016-12-29T15:27:56.960Z,0
2016-12-29T15:30:29.264Z,1
2016-12-29T15:33:01.920Z,0
2016-12-29T15:35:34.236Z,0
2016-12-29T15:38:06.557Z,0
2016-12-29T15:40:38.871Z,0
2016-12-29T15:43:11.188Z,0
2016-12-29T15:45:43.685Z,0
2016-12-29T15:48:16.011Z,0
2016-12-29T15:50:48.329Z,0
2016-12-29T15:53:20.643Z,0
2016-12-29T15:55:52.968Z,0
2016-12-29T15:58:25.286Z,0
2016-12-29T16:00:57.603Z,0
2016-12-29T16:03:29.914Z,0
2016-12-29T16:06:02.222Z,0
2016-12-29T16:08:34.558Z,0
2016-12-29T16:11:06.882Z,0
2016-12-29T16:13:39.213Z,0
2016-12-29T16:16:11.510Z,0
2016-12-29T16:18:43.833Z,0
2016-12-29T16:21:16.143Z,0
2016-12-29T16:23:48.478Z,0
2016-12-29T16:26:20.809Z,0
2016-12-29T16:28:53.126Z,0
2016-12-29T16:31:25.455Z,0
2016-12-29T16:33:57.777Z,36
2016-12-29T16:36:30.109Z,40
2016-12-29T16:39:02.422Z,37
2016-12-29T16:41:34.736Z,9
2016-12-29T16:44:07.050Z,11
2016-12-29T16:46:39.360Z,9
2016-12-29T16:49:11.693Z,9
2016-12-29T16:51:44.031Z,10
2016-12-29T16:54:17.450Z,10
2016-12-29T16:56:52.047Z,10
2016-12-29T16:59:24.438Z,11
2016-12-29T17:01:56.808Z,11
2016-12-29T17:04:29.135Z,1
2016-12-29T17:07:01.453Z,0
2016-12-29T17:09:33.767Z,0
2016-12-29T17:12:06.079Z,0
2016-12-29T17:14:38.425Z,0
2016-12-29T17:17:10.744Z,0
2016-12-29T17:19:43.072Z,0
2016-12-29T17:22:15.414Z,0
2016-12-29T17:24:47.740Z,0
2016-12-29T17:27:20.055Z,0
2016-12-29T17:29:52.394Z,0
2016-12-29T17:32:24.714Z,0
2016-12-29T17:34:57.021Z,0
2016-12-29T17:37:29.336Z,0
2016-12-29T17:40:01.669Z,0
2016-12-29T17:42:33.999Z,0
2016-12-29T17:45:06.307Z,0
2016-12-29T17:47:38.608Z,0
2016-12-29T17:50:10.928Z,0
2016-12-29T17:52:43.236Z,0
2016-12-29T17:55:15.571Z,0
2016-12-29T17:57:47.880Z,0
2016-12-29T18:00:20.206Z,0
2016-12-29T18:02:52.514Z,0
2016-12-29T18:05:24.862Z,0
2016-12-29T18:07:57.170Z,0
2016-12-29T18:10:29.510Z,0
2016-12-29T18:13:01.828Z,0
2016-12-29T18:15:34.152Z,0
2016-12-29T18:18:06.467Z,0
2016-12-29T18:20:38.789Z,0
2016-12-29T18:23:11.094Z,0
2016-12-29T18:25:43.434Z,0
2016-12-29T18:28:15.757Z,0
2016-12-29T18:30:48.075Z,0
2016-12-29T18:33:20.382Z,0
2016-12-29T18:35:52.694Z,0
2016-12-29T18:38:25.019Z,0
2016-12-29T18:40:57.329Z,0
2016-12-29T18:43:29.664Z,0
2016-12-29T18:46:01.997Z,0
2016-12-29T18:48:34.325Z,0
2016-12-29T18:51:06.653Z,0
2016-12-29T18:53:38.971Z,0
2016-12-29T18:56:11.297Z,0
2016-12-29T18:58:43.801Z,0
2016-12-29T19:01:16.124Z,0
2016-12-29T19:03:48.443Z,0
2016-12-29T19:06:20.763Z,4
2016-12-29T19:08:53.094Z,4
2016-12-29T19:11:25.421Z,0
2016-12-29T19:13:57.740Z,0
2016-12-29T19:16:30.101Z,0
2016-12-29T19:19:02.417Z,0
2016-12-29T19:21:35.244Z,0
2016-12-29T19:24:07.722Z,0
2016-12-29T19:26:40.214Z,0
2016-12-29T19:29:12.532Z,0
2016-12-29T19:31:44.847Z,0
2016-12-29T19:34:17.174Z,0
2016-12-29T19:36:49.493Z,0
2016-12-29T19:39:21.810Z,0
2016-12-29T19:41:54.117Z,2
2016-12-29T19:44:26.451Z,0
2016-12-29T19:46:58.758Z,0
2016-12-29T19:49:31.080Z,0
2016-12-29T19:52:03.411Z,0
2016-12-29T19:54:35.710Z,0
2016-12-29T19:57:08.026Z,0
2016-12-29T19:59:40.332Z,0
2016-12-29T20:02:12.666Z,0
2016-12-29T20:04:44.967Z,0
2016-12-29T20:07:17.276Z,0
2016-12-29T20:09:49.582Z,0
2016-12-29T20:12:21.914Z,0
2016-12-29T20:14:54.245Z,0
2016-12-29T20:17:26.545Z,0
2016-12-29T20:19:58.885Z,0
2016-12-29T20:22:31.213Z,0
2016-12-29T20:25:03.532Z,0
2016-12-29T20:27:35.842Z,0
2016-12-29T20:30:08.155Z,0
2016-12-29T20:32:40.480Z,0
2016-12-29T20:35:12.790Z,0
2016-12-29T20:37:45.099Z,0
2016-12-29T20:40:17.403Z,0
2016-12-29T20:42:49.715Z,0
2016-12-29T20:45:22.020Z,0
2016-12-29T20:47:54.345Z,0
2016-12-29T20:50:26.684Z,0
2016-12-29T20:52:58.988Z,0
2016-12-29T20:55:31.296Z,0
2016-12-29T20:58:03.617Z,0
2016-12-29T21:00:35.952Z,0
2016-12-29T21:03:08.286Z,0
2016-12-29T21:05:40.588Z,0
2016-12-29T21:08:12.918Z,0
2016-12-29T21:10:45.256Z,0
2016-12-29T21:13:17.592Z,0
2016-12-29T21:15:49.903Z,0
2016-12-29T21:18:22.227Z,0
2016-12-29T21:20:54.554Z,0
2016-12-29T21:23:26.911Z,0
2016-12-29T21:25:59.244Z,0
2016-12-29T21:28:31.548Z,0
2016-12-29T21:31:03.871Z,0
2016-12-29T21:33:36.166Z,0
2016-12-29T21:36:08.484Z,0
2016-12-29T21:38:40.811Z,0
2016-12-29T21:41:13.139Z,0
2016-12-29T21:43:45.462Z,0
2016-12-29T21:46:17.784Z,0
2016-12-29T21:48:50.088Z,0
2016-12-29T21:51:22.394Z,0
2016-12-29T21:53:54.721Z,0
2016-12-29T21:56:27.032Z,0
2016-12-29T21:58:59.345Z,0
2016-12-29T22:01:31.675Z,0
2016-12-29T22:04:04.002Z,0
2016-12-29T22:06:36.327Z,0
2016-12-29T22:09:08.638Z,0
2016-12-29T22:11:40.949Z,0
2016-12-29T22:14:13.262Z,0
2016-12-29T22:16:45.581Z,0
2016-12-29T22:19:17.899Z,0
2016-12-29T22:21:50.220Z,0
2016-12-29T22:24:22.544Z,0
2016-12-29T22:26:54.855Z,0
2016-12-29T22:29:27.202Z,0
2016-12-29T22:31:59.510Z,0
2016-12-29T22:34:31.840Z,0
2016-12-29T22:37:04.161Z,0
2016-12-29T22:39:36.499Z,0
2016-12-29T22:42:08.843Z,0
2016-12-29T22:44:41.156Z,0
2016-12-29T22:47:13.472Z,0
2016-12-29T22:49:45.803Z,0
2016-12-29T22:52:18.125Z,0
2016-12-29T22:54:50.452Z,0
2016-12-29T22:57:22.768Z,0
2016-12-29T22:59:55.068Z,0
2016-12-29T23:02:27.388Z,0
2016-12-29T23:04:59.725Z,0
2016-12-29T23:07:32.033Z,0
2016-12-29T23:10:04.568Z,0
2016-12-29T23:12:36.866Z,0
2016-12-29T23:15:09.205Z,0
2016-12-29T23:17:41.527Z,0
2016-12-29T23:20:13.861Z,0
2016-12-29T23:22:46.168Z,0
2016-12-29T23:25:18.501Z,0
2016-12-29T23:27:50.810Z,0
2016-12-29T23:30:23.134Z,0
2016-12-29T23:32:55.463Z,0
2016-12-29T23:35:27.784Z,0
2016-12-29T23:38:00.099Z,0
2016-12-29T23:40:32.422Z,0
2016-12-29T23:43:04.944Z,0
2016-12-29T23:45:37.678Z,0
2016-12-29T23:48:09.989Z,0
2016-12-29T23:50:42.303Z,0
2016-12-29T23:53:14.612Z,0
2016-12-29T23:55:46.925Z,0
2016-12-29T23:58:19.271Z,0
